createdAt,value
2018-09-23T00:01:45.185Z,24.37
2018-09-23T00:04:13.713Z,23.63
2018-09-23T00:06:42.381Z,23.67
2018-09-23T00:09:10.905Z,25.97
2018-09-23T00:11:40.186Z,26.67
2018-09-23T00:14:09.855Z,26.90
2018-09-23T00:16:38.438Z,28.77
2018-09-23T00:19:07.067Z,25.27
2018-09-23T00:21:35.636Z,27.03
2018-09-23T00:24:04.786Z,26.63
2018-09-23T00:26:33.325Z,28.20
2018-09-23T00:29:02.570Z,28.47
2018-09-23T00:31:31.958Z,29.27
2018-09-23T00:34:01.004Z,27.13
2018-09-23T00:36:29.810Z,28.37
2018-09-23T00:38:58.337Z,30.23
2018-09-23T00:41:26.857Z,29.03
2018-09-23T00:43:55.385Z,29.90
2018-09-23T00:46:23.898Z,28.97
2018-09-23T00:48:52.440Z,30.70
2018-09-23T00:51:21.607Z,28.70
2018-09-23T00:53:50.108Z,29.47
2018-09-23T00:56:18.639Z,31.67
2018-09-23T00:58:47.133Z,30.57
2018-09-23T01:01:15.669Z,29.40
2018-09-23T01:03:44.233Z,30.13
2018-09-23T01:06:12.766Z,29.50
2018-09-23T01:08:42.410Z,29.80
2018-09-23T01:11:11.294Z,31.37
2018-09-23T01:13:39.822Z,30.97
2018-09-23T01:16:08.385Z,31.10
2018-09-23T01:18:36.913Z,29.73
2018-09-23T01:21:05.477Z,30.60
2018-09-23T01:23:34.095Z,29.90
2018-09-23T01:26:02.633Z,31.17
2018-09-23T01:28:31.675Z,30.33
2018-09-23T01:31:00.177Z,32.67
2018-09-23T01:33:28.670Z,30.90
2018-09-23T01:35:57.809Z,29.90
2018-09-23T01:38:26.381Z,30.03
2018-09-23T01:40:54.941Z,30.90
2018-09-23T01:43:23.477Z,30.60
2018-09-23T01:45:52.262Z,28.83
2018-09-23T01:48:20.875Z,29.33
2018-09-23T01:50:49.437Z,30.30
2018-09-23T01:53:18.043Z,31.57
2018-09-23T01:55:46.663Z,29.70
2018-09-23T01:58:15.251Z,31.67
2018-09-23T02:00:43.839Z,30.27
2018-09-23T02:03:12.515Z,31.60
2018-09-23T02:05:41.154Z,32.10
2018-09-23T02:08:09.794Z,30.03
2018-09-23T02:10:38.367Z,31.77
2018-09-23T02:13:07.007Z,31.80
2018-09-23T02:15:35.624Z,32.87
2018-09-23T02:18:04.266Z,29.67
2018-09-23T02:20:32.843Z,30.40
2018-09-23T02:23:01.385Z,30.87
2018-09-23T02:25:29.910Z,30.20
2018-09-23T02:27:58.447Z,29.70
2018-09-23T02:30:26.965Z,29.63
2018-09-23T02:32:55.550Z,30.33
2018-09-23T02:35:24.135Z,28.00
2018-09-23T02:37:54.088Z,31.10
2018-09-23T02:40:22.803Z,29.50
2018-09-23T02:42:51.393Z,27.77
2018-09-23T02:45:19.980Z,27.10
2018-09-23T02:47:48.526Z,27.70
2018-09-23T02:50:17.155Z,28.17
2018-09-23T02:52:45.744Z,26.40
2018-09-23T02:55:14.399Z,28.00
2018-09-23T02:57:42.984Z,27.43
2018-09-23T03:00:11.557Z,26.87
2018-09-23T03:02:40.087Z,28.63
2018-09-23T03:05:08.657Z,28.70
2018-09-23T03:07:37.195Z,26.23
2018-09-23T03:10:05.785Z,27.63
2018-09-23T03:12:34.346Z,29.37
2018-09-23T03:15:02.974Z,28.37
2018-09-23T03:17:31.589Z,29.17
2018-09-23T03:20:00.102Z,27.90
2018-09-23T03:22:28.655Z,28.40
2018-09-23T03:24:57.218Z,29.77
2018-09-23T03:27:25.766Z,27.50
2018-09-23T03:29:54.321Z,28.53
2018-09-23T03:32:22.869Z,27.27
2018-09-23T03:34:51.394Z,28.37
2018-09-23T03:37:20.033Z,28.50
2018-09-23T03:39:48.625Z,26.63
2018-09-23T03:42:17.280Z,27.77
2018-09-23T03:44:45.785Z,28.30
2018-09-23T03:47:14.330Z,27.17
2018-09-23T03:49:42.877Z,27.07
2018-09-23T03:52:11.458Z,29.33
2018-09-23T03:54:39.925Z,28.27
2018-09-23T03:57:11.390Z,28.00
2018-09-23T03:59:39.985Z,27.20
2018-09-23T04:02:08.535Z,30.37
2018-09-23T04:04:37.133Z,27.40
2018-09-23T04:07:05.707Z,26.90
2018-09-23T04:09:34.234Z,25.70
2018-09-23T04:12:02.814Z,26.90
2018-09-23T04:14:31.386Z,26.27
2018-09-23T04:16:59.933Z,27.93
2018-09-23T04:19:28.513Z,26.90
2018-09-23T04:21:57.159Z,27.43
2018-09-23T04:24:25.708Z,29.30
2018-09-23T04:26:54.300Z,27.37
2018-09-23T04:29:22.931Z,28.17
2018-09-23T04:31:51.599Z,26.13
2018-09-23T04:34:20.542Z,26.50
2018-09-23T04:36:49.226Z,29.30
2018-09-23T04:39:17.893Z,27.70
2018-09-23T04:41:46.507Z,27.40
2018-09-23T04:44:15.205Z,27.93
2018-09-23T04:46:43.851Z,26.90
2018-09-23T04:49:12.519Z,24.70
2018-09-23T04:51:41.116Z,28.97
2018-09-23T04:54:09.644Z,25.70
2018-09-23T04:56:38.218Z,26.30
2018-09-23T04:59:06.783Z,24.30
2018-09-23T05:01:35.357Z,24.93
2018-09-23T05:04:03.906Z,27.80
2018-09-23T05:06:32.471Z,24.70
2018-09-23T05:09:00.982Z,23.80
2018-09-23T05:11:29.528Z,24.97
2018-09-23T05:13:58.127Z,24.30
2018-09-23T05:16:27.026Z,25.97
2018-09-23T05:18:55.878Z,25.00
2018-09-23T05:21:24.655Z,25.77
2018-09-23T05:23:53.371Z,24.27
2018-09-23T05:26:22.096Z,24.20
2018-09-23T05:28:50.715Z,23.93
2018-09-23T05:31:19.336Z,24.40
2018-09-23T05:33:48.011Z,23.13
2018-09-23T05:36:16.636Z,26.60
2018-09-23T05:38:45.334Z,24.17
2018-09-23T05:41:13.970Z,24.40
2018-09-23T05:43:42.620Z,24.53
2018-09-23T05:46:11.177Z,25.07
2018-09-23T05:48:39.734Z,27.43
2018-09-23T05:51:08.311Z,24.23
2018-09-23T05:53:36.854Z,25.97
2018-09-23T05:56:05.393Z,25.90
2018-09-23T05:58:33.959Z,24.43
2018-09-23T06:01:02.543Z,26.07
2018-09-23T06:03:31.781Z,26.43
2018-09-23T06:06:00.318Z,25.80
2018-09-23T06:08:28.864Z,26.37
2018-09-23T06:10:57.378Z,25.13
2018-09-23T06:13:25.967Z,25.60
2018-09-23T06:15:54.560Z,26.10
2018-09-23T06:18:23.157Z,26.17
2018-09-23T06:20:51.705Z,26.40
2018-09-23T06:23:20.233Z,25.97
2018-09-23T06:25:48.798Z,27.50
2018-09-23T06:28:17.480Z,28.17
2018-09-23T06:30:46.023Z,27.90
2018-09-23T06:33:15.700Z,27.37
2018-09-23T06:35:44.280Z,25.87
2018-09-23T06:38:12.791Z,28.80
2018-09-23T06:40:41.319Z,26.93
2018-09-23T06:43:10.402Z,27.80
2018-09-23T06:45:39.067Z,26.80
2018-09-23T06:48:07.558Z,27.10
2018-09-23T06:50:36.262Z,30.40
2018-09-23T06:53:04.797Z,30.37
2018-09-23T06:55:34.293Z,30.37
2018-09-23T06:58:03.534Z,29.83
2018-09-23T07:00:32.260Z,27.00
2018-09-23T07:03:01.181Z,29.23
2018-09-23T07:05:29.690Z,26.47
2018-09-23T07:07:58.233Z,25.83
2018-09-23T07:10:27.215Z,25.70
2018-09-23T07:12:55.765Z,23.93
2018-09-23T07:15:24.417Z,26.23
2018-09-23T07:17:53.288Z,23.87
2018-09-23T07:20:21.783Z,24.00
2018-09-23T07:22:50.462Z,23.00
2018-09-23T07:25:19.345Z,23.73
2018-09-23T07:27:47.973Z,22.30
2018-09-23T07:30:16.581Z,22.87
2018-09-23T07:32:45.142Z,23.63
2018-09-23T07:35:13.873Z,21.20
2018-09-23T07:37:43.362Z,22.97
2018-09-23T07:40:11.899Z,24.00
2018-09-23T07:42:40.415Z,22.80
2018-09-23T07:45:09.449Z,30.10
2018-09-23T07:47:37.957Z,28.70
2018-09-23T07:50:06.708Z,32.20
2018-09-23T07:52:35.449Z,39.10
2018-09-23T07:55:04.657Z,35.07
2018-09-23T07:57:33.181Z,36.70
2018-09-23T08:00:02.938Z,33.37
2018-09-23T08:02:31.906Z,31.30
2018-09-23T08:05:00.919Z,31.13
2018-09-23T08:07:29.385Z,27.07
2018-09-23T08:09:57.910Z,20.93
2018-09-23T08:12:26.423Z,23.23
2018-09-23T08:14:55.496Z,21.20
2018-09-23T08:17:23.509Z,21.80
2018-09-23T08:19:52.226Z,21.20
2018-09-23T08:22:20.698Z,20.37
2018-09-23T08:24:49.235Z,20.60
2018-09-23T08:27:17.781Z,21.20
2018-09-23T08:29:46.279Z,21.07
2018-09-23T08:32:14.784Z,20.13
2018-09-23T08:34:43.257Z,20.33
2018-09-23T08:37:11.821Z,20.80
2018-09-23T08:39:40.298Z,22.70
2018-09-23T08:42:08.888Z,21.67
2018-09-23T08:44:37.375Z,21.90
2018-09-23T08:47:05.932Z,23.23
2018-09-23T08:49:34.529Z,23.10
2018-09-23T08:52:03.047Z,20.67
2018-09-23T08:54:31.622Z,22.23
2018-09-23T08:57:00.134Z,21.90
2018-09-23T08:59:28.716Z,20.67
2018-09-23T09:01:57.226Z,22.70
2018-09-23T09:04:25.873Z,22.57
2018-09-23T09:06:54.439Z,22.90
2018-09-23T09:09:23.254Z,21.40
2018-09-23T09:11:51.760Z,23.60
2018-09-23T09:14:20.283Z,20.90
2018-09-23T09:21:45.471Z,23.00
2018-09-23T09:24:13.995Z,23.60
2018-09-23T09:26:43.193Z,21.53
2018-09-23T09:29:11.787Z,22.97
2018-09-23T09:31:40.502Z,25.70
2018-09-23T09:34:09.154Z,25.40
2018-09-23T09:36:37.674Z,24.27
2018-09-23T09:39:09.582Z,26.60
2018-09-23T09:41:38.222Z,26.30
2018-09-23T09:44:07.128Z,26.17
2018-09-23T09:46:35.909Z,23.17
2018-09-23T09:49:05.091Z,25.47
2018-09-23T09:51:34.105Z,25.57
2018-09-23T09:54:02.910Z,25.90
2018-09-23T09:56:32.186Z,24.43
2018-09-23T09:59:01.018Z,27.37
2018-09-23T10:01:29.538Z,25.67
2018-09-23T10:03:58.138Z,27.47
2018-09-23T10:06:26.593Z,26.83
2018-09-23T10:08:55.157Z,28.33
2018-09-23T10:11:23.855Z,27.27
2018-09-23T10:13:52.395Z,27.83
2018-09-23T10:16:21.002Z,24.43
2018-09-23T10:18:49.505Z,29.33
2018-09-23T10:21:18.397Z,26.77
2018-09-23T10:23:46.987Z,30.23
2018-09-23T10:26:15.490Z,29.30
2018-09-23T10:28:44.040Z,32.30
2018-09-23T10:31:12.638Z,28.77
2018-09-23T10:33:41.614Z,28.07
2018-09-23T10:36:10.186Z,27.00
2018-09-23T10:38:38.835Z,27.67
2018-09-23T10:41:07.360Z,25.40
2018-09-23T10:43:35.919Z,28.93
2018-09-23T10:46:04.459Z,30.30
2018-09-23T10:48:33.475Z,29.60
2018-09-23T10:51:02.016Z,26.70
2018-09-23T10:53:32.010Z,28.50
2018-09-23T10:56:00.546Z,29.47
2018-09-23T10:58:29.090Z,31.93
2018-09-23T11:00:57.644Z,29.70
2018-09-23T11:03:32.669Z,25.17
2018-09-23T11:06:02.135Z,25.73
2018-09-23T11:08:30.669Z,29.30
2018-09-23T11:10:59.210Z,27.73
2018-09-23T11:13:27.888Z,23.57
2018-09-23T11:15:56.410Z,26.17
2018-09-23T11:18:24.910Z,24.67
2018-09-23T11:20:53.439Z,20.67
2018-09-23T11:23:23.161Z,26.17
2018-09-23T11:25:51.655Z,22.60
2018-09-23T11:28:20.894Z,28.63
2018-09-23T11:30:50.101Z,31.03
2018-09-23T11:33:19.181Z,28.63
2018-09-23T11:35:49.219Z,29.37
2018-09-23T11:38:17.966Z,24.50
2018-09-23T11:40:46.502Z,26.57
2018-09-23T11:43:15.010Z,27.77
2018-09-23T11:45:43.518Z,26.00
2018-09-23T11:48:12.133Z,25.50
2018-09-23T11:50:41.397Z,24.20
2018-09-23T11:53:09.959Z,23.00
2018-09-23T11:55:38.575Z,17.33
2018-09-23T11:58:07.934Z,23.07
2018-09-23T12:00:36.442Z,18.30
2018-09-23T12:03:04.966Z,17.77
2018-09-23T12:05:33.494Z,20.83
2018-09-23T12:08:01.999Z,12.13
2018-09-23T12:10:30.752Z,18.10
2018-09-23T12:12:59.275Z,14.33
2018-09-23T12:15:27.803Z,10.77
2018-09-23T12:17:56.374Z,15.00
2018-09-23T12:20:24.939Z,12.83
2018-09-23T12:22:53.409Z,12.03
2018-09-23T12:25:22.720Z,16.80
2018-09-23T12:27:52.281Z,13.37
2018-09-23T12:30:20.757Z,14.13
2018-09-23T12:32:49.286Z,11.67
2018-09-23T12:35:17.919Z,13.90
2018-09-23T12:37:46.489Z,14.03
2018-09-23T12:40:15.048Z,14.13
2018-09-23T12:42:43.671Z,14.50
2018-09-23T12:45:12.224Z,15.20
2018-09-23T12:47:40.781Z,13.07
2018-09-23T12:50:09.403Z,11.10
2018-09-23T12:52:37.966Z,13.03
2018-09-23T12:55:06.551Z,13.03
2018-09-23T12:57:35.113Z,11.83
2018-09-23T13:00:03.873Z,14.43
2018-09-23T13:02:32.442Z,13.07
2018-09-23T13:05:01.634Z,12.33
2018-09-23T13:07:30.152Z,12.87
2018-09-23T13:09:58.628Z,13.13
2018-09-23T13:12:27.431Z,13.53
2018-09-23T13:14:55.951Z,13.63
2018-09-23T13:17:24.661Z,14.17
2018-09-23T13:19:53.285Z,15.67
2018-09-23T13:22:21.798Z,14.60
2018-09-23T13:24:50.906Z,13.90
2018-09-23T13:27:19.453Z,14.07
2018-09-23T13:29:47.961Z,13.50
2018-09-23T13:32:16.501Z,13.20
2018-09-23T13:34:45.700Z,13.60
2018-09-23T13:37:14.217Z,13.97
2018-09-23T13:39:42.702Z,15.87
2018-09-23T13:42:11.239Z,15.13
2018-09-23T13:44:40.345Z,13.90
2018-09-23T13:47:08.869Z,12.10
2018-09-23T13:49:37.433Z,10.17
2018-09-23T13:52:06.666Z,12.00
2018-09-23T13:54:35.213Z,7.77
2018-09-23T13:57:04.249Z,8.47
2018-09-23T13:59:32.788Z,8.33
2018-09-23T14:02:01.267Z,6.10
2018-09-23T14:04:29.810Z,7.03
2018-09-23T14:07:05.263Z,9.83
2018-09-23T14:09:33.842Z,9.07
2018-09-23T14:12:02.370Z,8.63
2018-09-23T14:14:30.849Z,8.57
2018-09-23T14:16:59.437Z,9.40
2018-09-23T14:19:27.913Z,8.47
2018-09-23T14:21:56.463Z,9.33
2018-09-23T14:24:25.885Z,9.00
2018-09-23T14:26:54.406Z,7.97
2018-09-23T14:29:22.935Z,10.00
2018-09-23T14:31:51.423Z,9.20
2018-09-23T14:34:19.941Z,10.97
2018-09-23T14:36:48.485Z,10.50
2018-09-23T14:39:16.970Z,11.10
2018-09-23T14:41:45.474Z,9.63
2018-09-23T14:44:14.537Z,9.70
2018-09-23T14:46:43.073Z,10.93
2018-09-23T14:49:11.609Z,10.10
2018-09-23T14:51:40.101Z,8.70
2018-09-23T14:54:08.692Z,8.47
2018-09-23T14:56:37.150Z,9.63
2018-09-23T14:59:05.703Z,9.00
2018-09-23T15:01:34.186Z,8.80
2018-09-23T15:04:02.718Z,7.37
2018-09-23T15:06:31.892Z,6.80
2018-09-23T15:09:00.304Z,7.67
2018-09-23T15:11:28.832Z,7.00
2018-09-23T15:13:57.402Z,6.70
2018-09-23T15:16:26.598Z,6.27
2018-09-23T15:18:55.181Z,5.23
2018-09-23T15:21:24.414Z,6.60
2018-09-23T15:23:52.924Z,6.20
2018-09-23T15:26:22.115Z,5.70
2018-09-23T15:28:50.614Z,6.63
2018-09-23T15:31:19.617Z,7.40
2018-09-23T15:33:48.157Z,6.70
2018-09-23T15:36:16.646Z,7.97
2018-09-23T15:38:45.178Z,7.83
2018-09-23T15:41:13.638Z,8.30
2018-09-23T15:43:42.799Z,8.90
2018-09-23T15:46:11.363Z,8.80
2018-09-23T15:48:39.875Z,9.60
2018-09-23T15:51:08.435Z,7.40
2018-09-23T15:53:37.094Z,8.30
2018-09-23T15:56:05.597Z,7.90
2018-09-23T15:58:34.638Z,5.00
2018-09-23T16:01:03.122Z,7.00
2018-09-23T16:03:32.350Z,3.80
2018-09-23T16:06:00.811Z,2.60
2018-09-23T16:08:29.311Z,3.30
2018-09-23T16:10:57.965Z,2.87
2018-09-23T16:13:26.546Z,2.83
2018-09-23T16:15:55.010Z,2.80
2018-09-23T16:18:23.865Z,2.97
2018-09-23T16:20:52.306Z,3.23
2018-09-23T16:23:20.790Z,3.73
2018-09-23T16:25:49.393Z,4.03
2018-09-23T16:28:17.894Z,3.40
2018-09-23T16:30:46.466Z,3.50
2018-09-23T16:33:15.092Z,3.30
2018-09-23T16:35:43.644Z,3.13
2018-09-23T16:38:13.191Z,2.47
2018-09-23T16:40:41.665Z,3.60
2018-09-23T16:43:10.201Z,3.70
2018-09-23T16:45:38.742Z,3.90
2018-09-23T16:48:07.577Z,4.67
2018-09-23T16:50:37.282Z,4.50
2018-09-23T16:53:06.550Z,4.13
2018-09-23T16:55:35.067Z,3.70
2018-09-23T16:58:04.258Z,5.30
2018-09-23T17:00:32.859Z,4.33
2018-09-23T17:03:01.314Z,4.60
2018-09-23T17:05:30.483Z,4.33
2018-09-23T17:07:59.022Z,5.50
2018-09-23T17:10:28.217Z,4.93
2018-09-23T17:12:56.764Z,5.90
2018-09-23T17:15:25.291Z,4.73
2018-09-23T17:17:53.846Z,5.37
2018-09-23T17:20:22.444Z,4.77
2018-09-23T17:22:51.114Z,5.53
2018-09-23T17:25:19.626Z,4.80
2018-09-23T17:27:48.398Z,6.13
2018-09-23T17:30:16.982Z,5.43
2018-09-23T17:32:45.445Z,5.37
2018-09-23T17:35:14.026Z,5.50
2018-09-23T17:37:42.766Z,5.83
2018-09-23T17:40:11.289Z,5.73
2018-09-23T17:42:40.254Z,5.33
2018-09-23T17:45:09.310Z,6.07
2018-09-23T17:47:37.795Z,5.33
2018-09-23T17:50:06.818Z,4.73
2018-09-23T17:52:35.415Z,5.33
2018-09-23T17:55:03.998Z,6.23
2018-09-23T17:57:32.467Z,5.30
2018-09-23T18:00:01.045Z,5.00
2018-09-23T18:02:30.310Z,5.30
2018-09-23T18:04:58.906Z,4.80
2018-09-23T18:07:27.440Z,5.43
2018-09-23T18:09:56.918Z,4.33
2018-09-23T18:12:25.440Z,5.23
2018-09-23T18:14:53.953Z,6.50
2018-09-23T18:17:22.751Z,5.67
2018-09-23T18:19:51.246Z,4.90
2018-09-23T18:22:19.833Z,4.80
2018-09-23T18:24:49.224Z,4.60
2018-09-23T18:27:17.709Z,5.20
2018-09-23T18:29:46.519Z,5.07
2018-09-23T18:32:15.830Z,4.70
2018-09-23T18:34:44.460Z,5.37
2018-09-23T18:37:13.085Z,5.93
2018-09-23T18:39:44.075Z,5.90
2018-09-23T18:42:13.700Z,4.63
2018-09-23T18:44:42.782Z,6.47
2018-09-23T18:47:11.515Z,4.60
2018-09-23T18:49:42.567Z,5.73
2018-09-23T18:52:11.069Z,6.00
2018-09-23T18:54:45.037Z,4.10
2018-09-23T18:57:13.945Z,5.03
2018-09-23T18:59:42.610Z,3.73
2018-09-23T19:02:11.248Z,3.50
2018-09-23T19:04:39.894Z,3.93
2018-09-23T19:07:08.428Z,3.60
2018-09-23T19:09:37.824Z,3.17
2018-09-23T19:12:06.397Z,3.30
2018-09-23T19:14:35.207Z,2.90
2018-09-23T19:17:03.895Z,3.60
2018-09-23T19:19:37.549Z,2.90
2018-09-23T19:22:10.234Z,2.10
2018-09-23T19:24:38.754Z,1.60
2018-09-23T19:27:07.229Z,2.80
2018-09-23T19:29:35.842Z,1.63
2018-09-23T19:32:04.525Z,1.93
2018-09-23T19:34:33.069Z,1.60
2018-09-23T19:37:01.636Z,1.63
2018-09-23T19:39:30.231Z,2.00
2018-09-23T19:41:58.873Z,1.37
2018-09-23T19:44:27.398Z,1.80
2018-09-23T19:46:55.886Z,1.90
2018-09-23T19:49:24.525Z,2.73
2018-09-23T19:51:53.017Z,3.27
2018-09-23T19:54:22.287Z,2.67
2018-09-23T19:56:50.885Z,5.03
2018-09-23T19:59:19.475Z,3.60
2018-09-23T20:01:47.986Z,3.97
2018-09-23T20:04:17.479Z,4.10
2018-09-23T20:06:46.073Z,3.87
2018-09-23T20:09:14.672Z,5.10
2018-09-23T20:11:43.174Z,5.13
2018-09-23T20:14:12.397Z,4.30
2018-09-23T20:16:41.730Z,5.30
2018-09-23T20:19:10.243Z,5.20
2018-09-23T20:21:38.868Z,4.37
2018-09-23T20:24:07.432Z,5.40
2018-09-23T20:26:35.930Z,5.17
2018-09-23T20:29:04.444Z,4.37
2018-09-23T20:31:33.282Z,4.50
2018-09-23T20:34:01.756Z,4.63
2018-09-23T20:36:30.279Z,3.90
2018-09-23T20:38:58.960Z,4.63
2018-09-23T20:41:28.610Z,4.97
2018-09-23T20:43:57.208Z,4.87
2018-09-23T20:46:26.274Z,5.23
2018-09-23T20:48:54.846Z,3.47
2018-09-23T20:51:23.330Z,4.10
2018-09-23T20:53:51.990Z,4.67
2018-09-23T20:56:20.457Z,3.77
2018-09-23T20:58:49.017Z,3.60
2018-09-23T21:01:17.557Z,3.90
2018-09-23T21:03:46.070Z,4.30
2018-09-23T21:06:14.577Z,3.20
2018-09-23T21:08:43.083Z,3.43
2018-09-23T21:11:12.526Z,4.03
2018-09-23T21:13:41.412Z,3.77
2018-09-23T21:16:09.907Z,3.60
2018-09-23T21:18:38.414Z,3.93
2018-09-23T21:21:07.193Z,3.40
2018-09-23T21:23:35.717Z,4.17
2018-09-23T21:26:04.249Z,3.50
2018-09-23T21:28:33.738Z,3.20
2018-09-23T21:31:03.565Z,4.10
2018-09-23T21:33:32.042Z,3.63
2018-09-23T21:36:00.559Z,3.43
2018-09-23T21:38:29.262Z,4.33
2018-09-23T21:40:57.722Z,4.03
2018-09-23T21:43:26.234Z,4.30
2018-09-23T21:45:54.732Z,4.83
2018-09-23T21:48:23.276Z,5.10
2018-09-23T21:50:51.848Z,6.40
2018-09-23T21:53:26.909Z,4.90
2018-09-23T21:55:55.553Z,6.53
2018-09-23T21:58:24.813Z,5.27
2018-09-23T22:00:53.545Z,5.30
2018-09-23T22:03:22.728Z,5.07
2018-09-23T22:05:51.218Z,4.93
2018-09-23T22:08:19.766Z,3.50
2018-09-23T22:10:48.300Z,3.63
2018-09-23T22:13:16.785Z,4.00
2018-09-23T22:15:45.342Z,3.23
2018-09-23T22:18:13.943Z,4.70
2018-09-23T22:20:42.567Z,2.60
2018-09-23T22:23:11.077Z,3.07
2018-09-23T22:25:39.749Z,2.50
2018-09-23T22:28:08.373Z,2.67
2018-09-23T22:30:36.888Z,2.10
2018-09-23T22:33:05.482Z,2.60
2018-09-23T22:35:34.073Z,2.37
2018-09-23T22:38:03.494Z,2.57
2018-09-23T22:40:32.035Z,2.60
2018-09-23T22:43:00.537Z,1.63
2018-09-23T22:45:29.047Z,1.77
2018-09-23T22:47:57.522Z,1.50
2018-09-23T22:50:26.023Z,2.00
2018-09-23T22:52:54.501Z,2.00
2018-09-23T22:55:23.044Z,3.50
2018-09-23T22:57:51.610Z,2.13
2018-09-23T23:00:20.441Z,1.70
2018-09-23T23:02:48.936Z,2.27
2018-09-23T23:05:17.501Z,1.90
2018-09-23T23:07:46.044Z,2.10
2018-09-23T23:10:14.526Z,2.00
2018-09-23T23:12:43.061Z,2.20
2018-09-23T23:15:11.573Z,2.57
2018-09-23T23:17:40.055Z,1.77
2018-09-23T23:20:08.623Z,1.90
2018-09-23T23:22:37.199Z,2.37
2018-09-23T23:25:06.044Z,1.97
2018-09-23T23:27:34.633Z,3.37
2018-09-23T23:30:03.774Z,3.90
2018-09-23T23:32:32.245Z,2.10
2018-09-23T23:35:01.381Z,1.70
2018-09-23T23:37:29.950Z,2.30
2018-09-23T23:39:58.452Z,2.87
2018-09-23T23:42:26.940Z,2.50
2018-09-23T23:44:55.476Z,2.40
2018-09-23T23:47:24.051Z,2.43
2018-09-23T23:49:52.598Z,1.93
2018-09-23T23:52:21.065Z,3.50
2018-09-23T23:54:49.713Z,2.60
2018-09-23T23:57:18.757Z,2.37
2018-09-23T23:59:47.283Z,2.97
